sensor_id;sensor_type;location;lat;lon;timestamp;P1;durP1;ratioP1;P2;durP2;ratioP2
24305;SDS011;12423;48.768;8.850;2024-01-15T00:02:13;12.10;;;4.40;;
24305;SDS011;12423;48.768;8.850;2024-01-15T00:04:42;10.57;;;4.40;;
24305;SDS011;12423;48.768;8.850;2024-01-15T00:09:37;10.48;;;3.78;;
24305;SDS011;12423;48.768;8.850;2024-01-15T00:12:05;9.40;;;3.70;;
24305;SDS011;12423;48.768;8.850;2024-01-15T00:14:33;7.57;;;3.40;;
24305;SDS011;12423;48.768;8.850;2024-01-15T00:17:01;9.63;;;3.22;;
24305;SDS011;12423;48.768;8.850;2024-01-15T00:19:30;12.77;;;4.10;;
24305;SDS011;12423;48.768;8.850;2024-01-15T00:22:00;9.90;;;3.63;;
24305;SDS011;12423;48.768;8.850;2024-01-15T00:24:27;10.60;;;3.33;;
24305;SDS011;12423;48.768;8.850;2024-01-15T00:26:56;9.90;;;4.68;;
24305;SDS011;12423;48.768;8.850;2024-01-15T00:29:23;11.15;;;4.47;;
24305;SDS011;12423;48.768;8.850;2024-01-15T00:31:51;11.90;;;3.58;;
24305;SDS011;12423;48.768;8.850;2024-01-15T00:34:19;8.95;;;4.60;;
24305;SDS011;12423;48.768;8.850;2024-01-15T00:36:47;12.75;;;3.97;;
24305;SDS011;12423;48.768;8.850;2024-01-15T00:39:17;9.43;;;4.15;;
24305;SDS011;12423;48.768;8.850;2024-01-15T00:41:44;9.65;;;4.05;;
24305;SDS011;12423;48.768;8.850;2024-01-15T00:44:12;11.35;;;4.03;;
24305;SDS011;12423;48.768;8.850;2024-01-15T00:46:43;9.50;;;3.90;;
24305;SDS011;12423;48.768;8.850;2024-01-15T00:49:11;10.27;;;3.80;;
24305;SDS011;12423;48.768;8.850;2024-01-15T00:51:40;13.43;;;4.55;;
24305;SDS011;12423;48.768;8.850;2024-01-15T00:54:08;16.17;;;4.50;;
24305;SDS011;12423;48.768;8.850;2024-01-15T00:56:37;11.73;;;3.97;;
24305;SDS011;12423;48.768;8.850;2024-01-15T01:01:34;10.77;;;4.07;;
24305;SDS011;12423;48.768;8.850;2024-01-15T01:04:02;7.70;;;3.28;;
24305;SDS011;12423;48.768;8.850;2024-01-15T01:06:29;8.60;;;3.08;;
24305;SDS011;12423;48.768;8.850;2024-01-15T01:08:59;9.98;;;4.05;;
24305;SDS011;12423;48.768;8.850;2024-01-15T01:11:27;9.00;;;3.58;;
24305;SDS011;12423;48.768;8.850;2024-01-15T01:13:56;12.88;;;4.00;;
24305;SDS011;12423;48.768;8.850;2024-01-15T01:16:24;13.48;;;4.85;;
24305;SDS011;12423;48.768;8.850;2024-01-15T01:18:52;8.13;;;3.40;;
24305;SDS011;12423;48.768;8.850;2024-01-15T01:21:20;10.52;;;4.32;;
24305;SDS011;12423;48.768;8.850;2024-01-15T01:23:47;11.05;;;3.50;;
24305;SDS011;12423;48.768;8.850;2024-01-15T01:26:15;10.82;;;3.63;;
24305;SDS011;12423;48.768;8.850;2024-01-15T01:28:43;7.90;;;3.37;;
24305;SDS011;12423;48.768;8.850;2024-01-15T01:31:13;12.07;;;4.57;;
24305;SDS011;12423;48.768;8.850;2024-01-15T01:33:43;9.23;;;3.67;;
24305;SDS011;12423;48.768;8.850;2024-01-15T01:36:11;8.98;;;2.95;;
24305;SDS011;12423;48.768;8.850;2024-01-15T01:38:39;9.52;;;3.35;;
24305;SDS011;12423;48.768;8.850;2024-01-15T01:41:07;10.60;;;4.60;;
24305;SDS011;12423;48.768;8.850;2024-01-15T01:43:35;10.40;;;4.03;;
24305;SDS011;12423;48.768;8.850;2024-01-15T01:46:03;11.45;;;4.20;;
24305;SDS011;12423;48.768;8.850;2024-01-15T01:48:33;7.70;;;3.65;;
24305;SDS011;12423;48.768;8.850;2024-01-15T01:51:02;12.90;;;5.35;;
24305;SDS011;12423;48.768;8.850;2024-01-15T01:53:31;12.88;;;4.40;;
24305;SDS011;12423;48.768;8.850;2024-01-15T01:56:01;9.88;;;3.70;;
24305;SDS011;12423;48.768;8.850;2024-01-15T01:58:30;7.85;;;3.65;;
24305;SDS011;12423;48.768;8.850;2024-01-15T02:00:59;10.48;;;3.55;;
24305;SDS011;12423;48.768;8.850;2024-01-15T02:03:27;13.50;;;4.22;;
24305;SDS011;12423;48.768;8.850;2024-01-15T02:05:57;9.63;;;3.90;;
24305;SDS011;12423;48.768;8.850;2024-01-15T02:08:26;10.98;;;4.38;;
24305;SDS011;12423;48.768;8.850;2024-01-15T02:10:54;14.02;;;4.68;;
24305;SDS011;12423;48.768;8.850;2024-01-15T02:13:22;8.52;;;3.28;;
24305;SDS011;12423;48.768;8.850;2024-01-15T02:15:50;9.48;;;3.00;;
24305;SDS011;12423;48.768;8.850;2024-01-15T02:18:18;10.77;;;4.03;;
24305;SDS011;12423;48.768;8.850;2024-01-15T02:20:46;10.75;;;3.35;;
24305;SDS011;12423;48.768;8.850;2024-01-15T02:23:15;14.10;;;4.40;;
24305;SDS011;12423;48.768;8.850;2024-01-15T02:25:44;10.27;;;3.67;;
24305;SDS011;12423;48.768;8.850;2024-01-15T02:30:41;11.60;;;3.15;;
24305;SDS011;12423;48.768;8.850;2024-01-15T02:33:10;10.43;;;3.13;;
24305;SDS011;12423;48.768;8.850;2024-01-15T02:35:39;10.25;;;4.07;;
24305;SDS011;12423;48.768;8.850;2024-01-15T02:38:07;12.95;;;4.22;;
24305;SDS011;12423;48.768;8.850;2024-01-15T02:40:36;11.35;;;3.55;;
24305;SDS011;12423;48.768;8.850;2024-01-15T02:43:05;10.23;;;3.40;;
24305;SDS011;12423;48.768;8.850;2024-01-15T02:45:33;12.52;;;3.88;;
24305;SDS011;12423;48.768;8.850;2024-01-15T02:48:01;10.18;;;3.75;;
24305;SDS011;12423;48.768;8.850;2024-01-15T02:50:29;13.52;;;4.05;;
24305;SDS011;12423;48.768;8.850;2024-01-15T02:52:56;11.55;;;4.50;;
24305;SDS011;12423;48.768;8.850;2024-01-15T02:55:24;9.45;;;3.88;;
24305;SDS011;12423;48.768;8.850;2024-01-15T02:57:53;8.52;;;3.75;;
24305;SDS011;12423;48.768;8.850;2024-01-15T03:02:50;11.10;;;3.53;;
24305;SDS011;12423;48.768;8.850;2024-01-15T03:05:18;12.02;;;3.70;;
24305;SDS011;12423;48.768;8.850;2024-01-15T03:07:46;8.38;;;3.10;;
24305;SDS011;12423;48.768;8.850;2024-01-15T03:10:14;8.57;;;3.08;;
24305;SDS011;12423;48.768;8.850;2024-01-15T03:12:41;7.97;;;2.88;;
24305;SDS011;12423;48.768;8.850;2024-01-15T03:15:11;8.80;;;3.30;;
24305;SDS011;12423;48.768;8.850;2024-01-15T03:17:39;7.25;;;3.15;;
24305;SDS011;12423;48.768;8.850;2024-01-15T03:20:09;8.20;;;3.25;;
24305;SDS011;12423;48.768;8.850;2024-01-15T03:22:37;15.00;;;3.55;;
24305;SDS011;12423;48.768;8.850;2024-01-15T03:25:05;11.07;;;3.47;;
24305;SDS011;12423;48.768;8.850;2024-01-15T03:27:34;7.97;;;2.97;;
24305;SDS011;12423;48.768;8.850;2024-01-15T03:30:01;6.95;;;2.28;;
24305;SDS011;12423;48.768;8.850;2024-01-15T03:32:31;7.90;;;2.93;;
24305;SDS011;12423;48.768;8.850;2024-01-15T03:34:59;4.55;;;1.83;;
24305;SDS011;12423;48.768;8.850;2024-01-15T03:37:27;9.32;;;2.58;;
24305;SDS011;12423;48.768;8.850;2024-01-15T03:39:54;6.53;;;2.30;;
24305;SDS011;12423;48.768;8.850;2024-01-15T03:42:23;9.27;;;3.07;;
24305;SDS011;12423;48.768;8.850;2024-01-15T03:44:50;7.88;;;3.05;;
24305;SDS011;12423;48.768;8.850;2024-01-15T03:47:18;8.27;;;3.42;;
24305;SDS011;12423;48.768;8.850;2024-01-15T03:49:47;7.15;;;2.45;;
24305;SDS011;12423;48.768;8.850;2024-01-15T03:52:15;8.30;;;2.72;;
24305;SDS011;12423;48.768;8.850;2024-01-15T03:54:43;7.38;;;2.70;;
24305;SDS011;12423;48.768;8.850;2024-01-15T03:57:10;6.68;;;2.40;;
24305;SDS011;12423;48.768;8.850;2024-01-15T03:59:40;6.35;;;2.95;;
24305;SDS011;12423;48.768;8.850;2024-01-15T04:04:35;8.30;;;2.67;;
24305;SDS011;12423;48.768;8.850;2024-01-15T04:07:04;7.25;;;3.13;;
24305;SDS011;12423;48.768;8.850;2024-01-15T04:09:32;7.75;;;3.08;;
24305;SDS011;12423;48.768;8.850;2024-01-15T04:12:00;8.93;;;2.53;;
24305;SDS011;12423;48.768;8.850;2024-01-15T04:14:27;7.47;;;3.28;;
24305;SDS011;12423;48.768;8.850;2024-01-15T04:16:56;8.27;;;2.53;;
24305;SDS011;12423;48.768;8.850;2024-01-15T04:19:23;7.97;;;3.05;;
24305;SDS011;12423;48.768;8.850;2024-01-15T04:21:51;12.13;;;3.53;;
24305;SDS011;12423;48.768;8.850;2024-01-15T04:24:20;9.65;;;4.18;;
24305;SDS011;12423;48.768;8.850;2024-01-15T04:26:48;12.80;;;4.55;;
24305;SDS011;12423;48.768;8.850;2024-01-15T04:29:16;11.18;;;3.88;;
24305;SDS011;12423;48.768;8.850;2024-01-15T04:31:43;12.38;;;4.35;;
24305;SDS011;12423;48.768;8.850;2024-01-15T04:34:11;10.57;;;4.28;;
24305;SDS011;12423;48.768;8.850;2024-01-15T04:36:39;9.73;;;4.32;;
24305;SDS011;12423;48.768;8.850;2024-01-15T04:39:07;8.00;;;3.08;;
24305;SDS011;12423;48.768;8.850;2024-01-15T04:41:37;5.93;;;2.42;;
24305;SDS011;12423;48.768;8.850;2024-01-15T04:46:32;8.25;;;3.63;;
24305;SDS011;12423;48.768;8.850;2024-01-15T04:49:00;9.60;;;3.22;;
24305;SDS011;12423;48.768;8.850;2024-01-15T04:51:27;8.23;;;3.17;;
24305;SDS011;12423;48.768;8.850;2024-01-15T04:53:55;10.73;;;2.72;;
24305;SDS011;12423;48.768;8.850;2024-01-15T04:56:23;9.07;;;3.17;;
24305;SDS011;12423;48.768;8.850;2024-01-15T04:58:52;7.28;;;3.17;;
24305;SDS011;12423;48.768;8.850;2024-01-15T05:01:20;7.45;;;2.70;;
24305;SDS011;12423;48.768;8.850;2024-01-15T05:03:48;7.03;;;2.55;;
24305;SDS011;12423;48.768;8.850;2024-01-15T05:06:21;4.43;;;2.15;;
24305;SDS011;12423;48.768;8.850;2024-01-15T05:08:49;3.50;;;1.45;;
24305;SDS011;12423;48.768;8.850;2024-01-15T05:11:17;9.15;;;3.22;;
24305;SDS011;12423;48.768;8.850;2024-01-15T05:13:44;6.28;;;2.67;;
24305;SDS011;12423;48.768;8.850;2024-01-15T05:16:13;8.68;;;3.33;;
24305;SDS011;12423;48.768;8.850;2024-01-15T05:18:41;12.43;;;3.28;;
24305;SDS011;12423;48.768;8.850;2024-01-15T05:21:09;6.55;;;2.95;;
24305;SDS011;12423;48.768;8.850;2024-01-15T05:23:37;10.73;;;4.45;;
24305;SDS011;12423;48.768;8.850;2024-01-15T05:26:05;12.35;;;3.90;;
24305;SDS011;12423;48.768;8.850;2024-01-15T05:28:35;9.95;;;3.42;;
24305;SDS011;12423;48.768;8.850;2024-01-15T05:31:03;10.00;;;3.25;;
24305;SDS011;12423;48.768;8.850;2024-01-15T05:33:33;8.23;;;3.42;;
24305;SDS011;12423;48.768;8.850;2024-01-15T05:38:28;6.90;;;2.40;;
24305;SDS011;12423;48.768;8.850;2024-01-15T05:40:56;12.13;;;2.60;;
24305;SDS011;12423;48.768;8.850;2024-01-15T05:43:24;10.57;;;2.72;;
24305;SDS011;12423;48.768;8.850;2024-01-15T05:45:51;9.52;;;3.10;;
24305;SDS011;12423;48.768;8.850;2024-01-15T05:48:19;10.57;;;4.05;;
24305;SDS011;12423;48.768;8.850;2024-01-15T05:50:49;7.05;;;3.50;;
24305;SDS011;12423;48.768;8.850;2024-01-15T05:53:16;8.85;;;3.75;;
24305;SDS011;12423;48.768;8.850;2024-01-15T05:55:44;10.57;;;3.70;;
24305;SDS011;12423;48.768;8.850;2024-01-15T05:58:12;12.02;;;4.57;;
24305;SDS011;12423;48.768;8.850;2024-01-15T06:00:39;8.20;;;3.28;;
24305;SDS011;12423;48.768;8.850;2024-01-15T06:03:07;9.77;;;2.92;;
24305;SDS011;12423;48.768;8.850;2024-01-15T06:05:35;7.38;;;3.10;;
24305;SDS011;12423;48.768;8.850;2024-01-15T06:08:04;10.15;;;3.28;;
24305;SDS011;12423;48.768;8.850;2024-01-15T06:10:32;10.13;;;3.38;;
24305;SDS011;12423;48.768;8.850;2024-01-15T06:13:00;6.72;;;3.17;;
24305;SDS011;12423;48.768;8.850;2024-01-15T06:15:28;7.38;;;3.08;;
24305;SDS011;12423;48.768;8.850;2024-01-15T06:17:55;9.73;;;3.40;;
24305;SDS011;12423;48.768;8.850;2024-01-15T06:20:23;5.50;;;2.33;;
24305;SDS011;12423;48.768;8.850;2024-01-15T06:22:51;6.57;;;2.75;;
24305;SDS011;12423;48.768;8.850;2024-01-15T06:25:20;9.63;;;3.92;;
24305;SDS011;12423;48.768;8.850;2024-01-15T06:30:16;11.55;;;3.40;;
24305;SDS011;12423;48.768;8.850;2024-01-15T06:32:43;9.90;;;4.32;;
24305;SDS011;12423;48.768;8.850;2024-01-15T06:35:11;7.93;;;2.95;;
24305;SDS011;12423;48.768;8.850;2024-01-15T06:37:39;7.30;;;3.30;;
24305;SDS011;12423;48.768;8.850;2024-01-15T06:40:07;7.32;;;2.90;;
24305;SDS011;12423;48.768;8.850;2024-01-15T06:42:37;9.60;;;4.03;;
24305;SDS011;12423;48.768;8.850;2024-01-15T06:45:06;7.97;;;3.30;;
24305;SDS011;12423;48.768;8.850;2024-01-15T06:47:34;7.65;;;3.38;;
24305;SDS011;12423;48.768;8.850;2024-01-15T06:50:02;6.65;;;2.47;;
24305;SDS011;12423;48.768;8.850;2024-01-15T06:52:31;8.52;;;2.53;;
24305;SDS011;12423;48.768;8.850;2024-01-15T06:54:59;3.50;;;1.67;;
24305;SDS011;12423;48.768;8.850;2024-01-15T06:57:27;6.13;;;2.90;;
24305;SDS011;12423;48.768;8.850;2024-01-15T06:59:56;13.15;;;3.15;;
24305;SDS011;12423;48.768;8.850;2024-01-15T07:02:23;8.57;;;3.42;;
24305;SDS011;12423;48.768;8.850;2024-01-15T07:04:51;6.90;;;2.65;;
24305;SDS011;12423;48.768;8.850;2024-01-15T07:07:19;10.15;;;2.35;;
24305;SDS011;12423;48.768;8.850;2024-01-15T07:09:47;6.07;;;2.03;;
24305;SDS011;12423;48.768;8.850;2024-01-15T07:12:15;6.22;;;2.85;;
24305;SDS011;12423;48.768;8.850;2024-01-15T07:14:42;6.63;;;2.13;;
24305;SDS011;12423;48.768;8.850;2024-01-15T07:17:11;10.50;;;3.53;;
24305;SDS011;12423;48.768;8.850;2024-01-15T07:19:40;10.32;;;3.58;;
24305;SDS011;12423;48.768;8.850;2024-01-15T07:22:07;9.35;;;3.10;;
24305;SDS011;12423;48.768;8.850;2024-01-15T07:24:36;9.07;;;2.70;;
24305;SDS011;12423;48.768;8.850;2024-01-15T07:27:04;10.88;;;3.25;;
24305;SDS011;12423;48.768;8.850;2024-01-15T07:29:32;7.38;;;3.30;;
24305;SDS011;12423;48.768;8.850;2024-01-15T07:32:02;4.22;;;1.88;;
24305;SDS011;12423;48.768;8.850;2024-01-15T07:34:31;7.25;;;3.10;;
24305;SDS011;12423;48.768;8.850;2024-01-15T07:39:27;8.82;;;2.50;;
24305;SDS011;12423;48.768;8.850;2024-01-15T07:41:55;6.95;;;2.88;;
24305;SDS011;12423;48.768;8.850;2024-01-15T07:44:23;6.20;;;3.08;;
24305;SDS011;12423;48.768;8.850;2024-01-15T07:46:51;8.25;;;3.00;;
24305;SDS011;12423;48.768;8.850;2024-01-15T07:49:18;5.97;;;3.00;;
24305;SDS011;12423;48.768;8.850;2024-01-15T07:51:47;8.73;;;4.20;;
24305;SDS011;12423;48.768;8.850;2024-01-15T07:56:53;5.55;;;2.38;;
24305;SDS011;12423;48.768;8.850;2024-01-15T07:59:21;5.57;;;2.33;;
24305;SDS011;12423;48.768;8.850;2024-01-15T08:01:49;7.28;;;3.00;;
24305;SDS011;12423;48.768;8.850;2024-01-15T08:04:17;6.03;;;2.53;;
24305;SDS011;12423;48.768;8.850;2024-01-15T08:06:45;7.32;;;2.60;;
24305;SDS011;12423;48.768;8.850;2024-01-15T08:09:15;6.88;;;2.80;;
24305;SDS011;12423;48.768;8.850;2024-01-15T08:11:42;6.63;;;2.90;;
24305;SDS011;12423;48.768;8.850;2024-01-15T08:14:11;6.95;;;2.70;;
24305;SDS011;12423;48.768;8.850;2024-01-15T08:16:39;5.78;;;2.70;;
24305;SDS011;12423;48.768;8.850;2024-01-15T08:19:07;6.00;;;2.75;;
24305;SDS011;12423;48.768;8.850;2024-01-15T08:21:35;6.07;;;2.95;;
24305;SDS011;12423;48.768;8.850;2024-01-15T08:24:03;9.30;;;2.92;;
24305;SDS011;12423;48.768;8.850;2024-01-15T08:26:33;7.15;;;2.97;;
24305;SDS011;12423;48.768;8.850;2024-01-15T08:29:01;5.20;;;2.65;;
24305;SDS011;12423;48.768;8.850;2024-01-15T08:31:28;5.95;;;2.50;;
24305;SDS011;12423;48.768;8.850;2024-01-15T08:33:56;5.70;;;2.22;;
24305;SDS011;12423;48.768;8.850;2024-01-15T08:38:53;5.18;;;2.30;;
24305;SDS011;12423;48.768;8.850;2024-01-15T08:41:21;3.45;;;1.80;;
24305;SDS011;12423;48.768;8.850;2024-01-15T08:43:51;4.50;;;2.13;;
24305;SDS011;12423;48.768;8.850;2024-01-15T08:46:19;4.53;;;1.98;;
24305;SDS011;12423;48.768;8.850;2024-01-15T08:48:47;4.53;;;2.20;;
24305;SDS011;12423;48.768;8.850;2024-01-15T08:51:15;4.85;;;1.80;;
24305;SDS011;12423;48.768;8.850;2024-01-15T08:53:44;7.15;;;2.40;;
24305;SDS011;12423;48.768;8.850;2024-01-15T08:56:12;7.55;;;2.60;;
24305;SDS011;12423;48.768;8.850;2024-01-15T08:58:40;5.45;;;2.35;;
24305;SDS011;12423;48.768;8.850;2024-01-15T09:01:09;8.93;;;2.30;;
24305;SDS011;12423;48.768;8.850;2024-01-15T09:06:05;5.82;;;2.38;;
24305;SDS011;12423;48.768;8.850;2024-01-15T09:08:33;4.57;;;1.77;;
24305;SDS011;12423;48.768;8.850;2024-01-15T09:11:00;6.03;;;2.28;;
24305;SDS011;12423;48.768;8.850;2024-01-15T09:15:57;5.88;;;2.17;;
24305;SDS011;12423;48.768;8.850;2024-01-15T09:18:28;8.63;;;1.75;;
24305;SDS011;12423;48.768;8.850;2024-01-15T09:20:56;4.93;;;2.20;;
24305;SDS011;12423;48.768;8.850;2024-01-15T09:23:23;7.55;;;2.15;;
24305;SDS011;12423;48.768;8.850;2024-01-15T09:25:54;5.45;;;2.17;;
24305;SDS011;12423;48.768;8.850;2024-01-15T09:28:22;6.65;;;2.50;;
24305;SDS011;12423;48.768;8.850;2024-01-15T09:30:50;6.65;;;2.65;;
24305;SDS011;12423;48.768;8.850;2024-01-15T09:33:18;6.07;;;2.88;;
24305;SDS011;12423;48.768;8.850;2024-01-15T09:35:47;7.82;;;2.78;;
24305;SDS011;12423;48.768;8.850;2024-01-15T09:40:45;7.68;;;2.78;;
24305;SDS011;12423;48.768;8.850;2024-01-15T09:43:13;4.53;;;1.42;;
24305;SDS011;12423;48.768;8.850;2024-01-15T09:45:42;4.93;;;2.20;;
24305;SDS011;12423;48.768;8.850;2024-01-15T09:50:39;7.00;;;2.60;;
24305;SDS011;12423;48.768;8.850;2024-01-15T09:53:08;5.10;;;2.00;;
24305;SDS011;12423;48.768;8.850;2024-01-15T09:55:37;5.18;;;1.85;;
24305;SDS011;12423;48.768;8.850;2024-01-15T09:58:05;6.60;;;2.20;;
24305;SDS011;12423;48.768;8.850;2024-01-15T10:00:33;5.63;;;2.20;;
24305;SDS011;12423;48.768;8.850;2024-01-15T10:03:03;6.25;;;2.58;;
24305;SDS011;12423;48.768;8.850;2024-01-15T10:05:32;7.20;;;2.95;;
24305;SDS011;12423;48.768;8.850;2024-01-15T10:08:00;5.30;;;2.40;;
24305;SDS011;12423;48.768;8.850;2024-01-15T10:10:30;4.85;;;2.40;;
24305;SDS011;12423;48.768;8.850;2024-01-15T10:12:58;5.07;;;2.13;;
24305;SDS011;12423;48.768;8.850;2024-01-15T10:15:26;3.67;;;1.77;;
24305;SDS011;12423;48.768;8.850;2024-01-15T10:17:54;5.03;;;2.95;;
24305;SDS011;12423;48.768;8.850;2024-01-15T10:20:22;6.78;;;2.58;;
24305;SDS011;12423;48.768;8.850;2024-01-15T10:22:50;4.70;;;1.88;;
24305;SDS011;12423;48.768;8.850;2024-01-15T10:25:18;4.82;;;2.00;;
24305;SDS011;12423;48.768;8.850;2024-01-15T10:28:00;7.32;;;2.35;;
24305;SDS011;12423;48.768;8.850;2024-01-15T10:30:28;7.35;;;2.53;;
24305;SDS011;12423;48.768;8.850;2024-01-15T10:32:57;4.28;;;1.73;;
24305;SDS011;12423;48.768;8.850;2024-01-15T10:35:26;6.15;;;2.35;;
24305;SDS011;12423;48.768;8.850;2024-01-15T10:37:54;3.65;;;1.92;;
24305;SDS011;12423;48.768;8.850;2024-01-15T10:40:22;5.72;;;1.83;;
24305;SDS011;12423;48.768;8.850;2024-01-15T10:42:50;6.72;;;2.15;;
24305;SDS011;12423;48.768;8.850;2024-01-15T10:45:19;4.55;;;1.55;;
24305;SDS011;12423;48.768;8.850;2024-01-15T10:47:47;5.30;;;2.00;;
24305;SDS011;12423;48.768;8.850;2024-01-15T10:50:16;6.50;;;2.00;;
24305;SDS011;12423;48.768;8.850;2024-01-15T10:52:43;5.47;;;1.88;;
24305;SDS011;12423;48.768;8.850;2024-01-15T10:55:12;7.18;;;2.28;;
24305;SDS011;12423;48.768;8.850;2024-01-15T10:57:45;5.60;;;1.98;;
24305;SDS011;12423;48.768;8.850;2024-01-15T11:00:16;5.97;;;2.30;;
24305;SDS011;12423;48.768;8.850;2024-01-15T11:02:47;4.85;;;2.20;;
24305;SDS011;12423;48.768;8.850;2024-01-15T11:07:44;7.32;;;2.78;;
24305;SDS011;12423;48.768;8.850;2024-01-15T11:13:15;5.57;;;2.45;;
24305;SDS011;12423;48.768;8.850;2024-01-15T11:15:59;5.28;;;2.42;;
24305;SDS011;12423;48.768;8.850;2024-01-15T11:18:30;4.32;;;2.22;;
24305;SDS011;12423;48.768;8.850;2024-01-15T11:21:19;5.53;;;2.58;;
24305;SDS011;12423;48.768;8.850;2024-01-15T11:23:50;6.57;;;2.72;;
24305;SDS011;12423;48.768;8.850;2024-01-15T11:26:26;5.72;;;2.50;;
24305;SDS011;12423;48.768;8.850;2024-01-15T11:28:59;4.67;;;2.00;;
24305;SDS011;12423;48.768;8.850;2024-01-15T11:31:29;8.02;;;2.55;;
24305;SDS011;12423;48.768;8.850;2024-01-15T11:34:51;4.82;;;2.55;;
24305;SDS011;12423;48.768;8.850;2024-01-15T11:37:26;6.85;;;2.70;;
24305;SDS011;12423;48.768;8.850;2024-01-15T11:39:56;8.95;;;2.95;;
24305;SDS011;12423;48.768;8.850;2024-01-15T11:42:29;6.50;;;2.63;;
24305;SDS011;12423;48.768;8.850;2024-01-15T11:44:57;5.72;;;2.35;;
24305;SDS011;12423;48.768;8.850;2024-01-15T11:47:36;7.95;;;2.63;;
24305;SDS011;12423;48.768;8.850;2024-01-15T11:50:24;5.63;;;2.25;;
24305;SDS011;12423;48.768;8.850;2024-01-15T11:52:55;3.85;;;2.00;;
24305;SDS011;12423;48.768;8.850;2024-01-15T11:55:33;8.18;;;2.33;;
24305;SDS011;12423;48.768;8.850;2024-01-15T11:58:02;3.38;;;1.83;;
24305;SDS011;12423;48.768;8.850;2024-01-15T12:00:38;6.75;;;2.28;;
24305;SDS011;12423;48.768;8.850;2024-01-15T12:03:07;7.43;;;3.03;;
24305;SDS011;12423;48.768;8.850;2024-01-15T12:08:06;5.13;;;1.88;;
24305;SDS011;12423;48.768;8.850;2024-01-15T12:10:37;5.30;;;2.63;;
24305;SDS011;12423;48.768;8.850;2024-01-15T12:13:09;6.25;;;2.72;;
24305;SDS011;12423;48.768;8.850;2024-01-15T12:15:38;3.90;;;1.80;;
24305;SDS011;12423;48.768;8.850;2024-01-15T12:18:08;4.40;;;1.88;;
24305;SDS011;12423;48.768;8.850;2024-01-15T12:20:39;7.07;;;2.45;;
24305;SDS011;12423;48.768;8.850;2024-01-15T12:23:08;4.32;;;2.20;;
24305;SDS011;12423;48.768;8.850;2024-01-15T12:25:37;4.78;;;1.98;;
24305;SDS011;12423;48.768;8.850;2024-01-15T12:28:05;7.38;;;2.00;;
24305;SDS011;12423;48.768;8.850;2024-01-15T12:30:34;6.00;;;1.95;;
24305;SDS011;12423;48.768;8.850;2024-01-15T12:33:04;6.45;;;2.38;;
24305;SDS011;12423;48.768;8.850;2024-01-15T12:35:33;2.55;;;1.33;;
24305;SDS011;12423;48.768;8.850;2024-01-15T12:38:02;6.32;;;2.60;;
24305;SDS011;12423;48.768;8.850;2024-01-15T12:40:32;5.50;;;2.30;;
24305;SDS011;12423;48.768;8.850;2024-01-15T12:43:03;6.35;;;2.10;;
24305;SDS011;12423;48.768;8.850;2024-01-15T12:45:32;4.47;;;2.13;;
24305;SDS011;12423;48.768;8.850;2024-01-15T12:55:29;5.57;;;1.88;;
24305;SDS011;12423;48.768;8.850;2024-01-15T13:00:25;4.72;;;1.63;;
24305;SDS011;12423;48.768;8.850;2024-01-15T13:02:53;4.43;;;1.65;;
24305;SDS011;12423;48.768;8.850;2024-01-15T13:05:21;4.87;;;1.80;;
24305;SDS011;12423;48.768;8.850;2024-01-15T13:07:51;5.55;;;2.10;;
24305;SDS011;12423;48.768;8.850;2024-01-15T13:10:19;4.10;;;2.00;;
24305;SDS011;12423;48.768;8.850;2024-01-15T13:12:50;3.97;;;1.55;;
24305;SDS011;12423;48.768;8.850;2024-01-15T13:17:46;4.70;;;1.45;;
24305;SDS011;12423;48.768;8.850;2024-01-15T13:20:13;1.83;;;1.08;;
24305;SDS011;12423;48.768;8.850;2024-01-15T13:22:41;2.70;;;1.13;;
24305;SDS011;12423;48.768;8.850;2024-01-15T13:25:11;1.92;;;0.90;;
24305;SDS011;12423;48.768;8.850;2024-01-15T13:27:39;3.78;;;1.20;;
24305;SDS011;12423;48.768;8.850;2024-01-15T13:32:39;2.00;;;0.80;;
24305;SDS011;12423;48.768;8.850;2024-01-15T13:35:07;3.40;;;1.20;;
24305;SDS011;12423;48.768;8.850;2024-01-15T13:37:39;1.48;;;0.80;;
24305;SDS011;12423;48.768;8.850;2024-01-15T13:40:08;2.28;;;1.13;;
24305;SDS011;12423;48.768;8.850;2024-01-15T13:42:42;4.55;;;1.40;;
24305;SDS011;12423;48.768;8.850;2024-01-15T13:45:11;2.35;;;0.88;;
24305;SDS011;12423;48.768;8.850;2024-01-15T13:47:41;2.47;;;0.98;;
24305;SDS011;12423;48.768;8.850;2024-01-15T13:50:09;1.58;;;0.90;;
24305;SDS011;12423;48.768;8.850;2024-01-15T13:52:37;2.25;;;0.90;;
24305;SDS011;12423;48.768;8.850;2024-01-15T13:55:05;2.17;;;1.00;;
24305;SDS011;12423;48.768;8.850;2024-01-15T13:57:35;2.40;;;0.80;;
24305;SDS011;12423;48.768;8.850;2024-01-15T14:00:03;2.53;;;1.10;;
24305;SDS011;12423;48.768;8.850;2024-01-15T14:02:37;2.78;;;0.98;;
24305;SDS011;12423;48.768;8.850;2024-01-15T14:05:05;2.92;;;1.10;;
24305;SDS011;12423;48.768;8.850;2024-01-15T14:07:33;2.78;;;1.42;;
24305;SDS011;12423;48.768;8.850;2024-01-15T14:10:01;3.60;;;1.83;;
24305;SDS011;12423;48.768;8.850;2024-01-15T14:12:30;3.25;;;1.63;;
24305;SDS011;12423;48.768;8.850;2024-01-15T14:14:58;2.30;;;1.07;;
24305;SDS011;12423;48.768;8.850;2024-01-15T14:17:26;2.80;;;1.10;;
24305;SDS011;12423;48.768;8.850;2024-01-15T14:19:56;1.83;;;1.05;;
24305;SDS011;12423;48.768;8.850;2024-01-15T14:22:24;3.30;;;1.60;;
24305;SDS011;12423;48.768;8.850;2024-01-15T14:24:51;2.78;;;1.27;;
24305;SDS011;12423;48.768;8.850;2024-01-15T14:27:20;3.05;;;1.67;;
24305;SDS011;12423;48.768;8.850;2024-01-15T14:29:48;6.35;;;2.25;;
24305;SDS011;12423;48.768;8.850;2024-01-15T14:32:16;3.22;;;1.65;;
24305;SDS011;12423;48.768;8.850;2024-01-15T14:34:44;5.63;;;2.13;;
24305;SDS011;12423;48.768;8.850;2024-01-15T14:37:13;5.40;;;1.90;;
24305;SDS011;12423;48.768;8.850;2024-01-15T14:39:41;5.45;;;2.05;;
24305;SDS011;12423;48.768;8.850;2024-01-15T14:42:09;4.25;;;1.92;;
24305;SDS011;12423;48.768;8.850;2024-01-15T14:44:37;3.00;;;1.40;;
24305;SDS011;12423;48.768;8.850;2024-01-15T14:47:07;4.15;;;2.33;;
24305;SDS011;12423;48.768;8.850;2024-01-15T14:49:35;5.50;;;1.80;;
24305;SDS011;12423;48.768;8.850;2024-01-15T14:52:03;5.28;;;2.10;;
24305;SDS011;12423;48.768;8.850;2024-01-15T14:54:32;4.00;;;2.25;;
24305;SDS011;12423;48.768;8.850;2024-01-15T14:57:01;4.10;;;1.77;;
24305;SDS011;12423;48.768;8.850;2024-01-15T14:59:28;4.50;;;2.22;;
24305;SDS011;12423;48.768;8.850;2024-01-15T15:01:56;7.38;;;2.97;;
24305;SDS011;12423;48.768;8.850;2024-01-15T15:04:24;4.47;;;2.15;;
24305;SDS011;12423;48.768;8.850;2024-01-15T15:06:52;5.53;;;2.45;;
24305;SDS011;12423;48.768;8.850;2024-01-15T15:09:20;5.20;;;2.70;;
24305;SDS011;12423;48.768;8.850;2024-01-15T15:11:50;5.43;;;2.80;;
24305;SDS011;12423;48.768;8.850;2024-01-15T15:14:18;6.25;;;2.95;;
24305;SDS011;12423;48.768;8.850;2024-01-15T15:16:46;5.68;;;2.83;;
24305;SDS011;12423;48.768;8.850;2024-01-15T15:19:13;7.15;;;3.45;;
24305;SDS011;12423;48.768;8.850;2024-01-15T15:21:41;6.13;;;2.75;;
24305;SDS011;12423;48.768;8.850;2024-01-15T15:24:09;5.88;;;2.92;;
24305;SDS011;12423;48.768;8.850;2024-01-15T15:26:38;8.07;;;3.13;;
24305;SDS011;12423;48.768;8.850;2024-01-15T15:29:07;9.45;;;3.20;;
24305;SDS011;12423;48.768;8.850;2024-01-15T15:31:35;5.72;;;3.20;;
24305;SDS011;12423;48.768;8.850;2024-01-15T15:34:03;6.95;;;3.00;;
24305;SDS011;12423;48.768;8.850;2024-01-15T15:36:31;12.02;;;3.03;;
24305;SDS011;12423;48.768;8.850;2024-01-15T15:38:59;7.07;;;2.97;;
24305;SDS011;12423;48.768;8.850;2024-01-15T15:41:27;6.07;;;3.10;;
24305;SDS011;12423;48.768;8.850;2024-01-15T15:46:24;7.80;;;2.45;;
24305;SDS011;12423;48.768;8.850;2024-01-15T15:48:52;6.63;;;2.80;;
24305;SDS011;12423;48.768;8.850;2024-01-15T15:51:19;5.72;;;2.67;;
24305;SDS011;12423;48.768;8.850;2024-01-15T15:53:47;5.10;;;2.42;;
24305;SDS011;12423;48.768;8.850;2024-01-15T15:56:15;4.60;;;2.33;;
24305;SDS011;12423;48.768;8.850;2024-01-15T15:58:43;5.68;;;2.53;;